• Join FlightAware (Why Join?)
  • Login
  • US Flag 
11:57PM EDT


 

Airport Tracker/Info


-or-


 

Live Flight TrackerFlight Track Log ✈ AWE3418 ✈ 14-Apr-2013 ✈ KPHL - KMHT

Flight Track Log - Related Links

Times and Time Zones

All times are in EDT time to prevent confusion due to time zone crossing. See the AWE3418 flight status page for this flight to view local times or setup timezone preferences in your user account.

Time Position Orientation Groundspeed Altitude Reporting Facility
EDT Latitude Longitude Course Direction KTS MPH feet Rate Location/Type
09:14PM 39.8667 -75.2667 38° Northeast 146 168 800  Level Philadelphia TRACON
09:15PM 39.8436 -75.2878 215° Southwest 169 194 1,900 2,100 Climbing FAA TRACON SMA TRACON (SMA)
09:15PM 39.8283 -75.3028 217° Southwest 203 234 2,700 2,220 Climbing FAA TRACON SMA TRACON (SMA)
09:15PM 39.8128 -75.3153 212° Southwest 214 246 3,400 2,100 Climbing FAA TRACON SMA TRACON (SMA)
09:16PM 39.7903 -75.3169 183° South 275 316 4,100 3,000 Climbing FAA TRACON SMA TRACON (SMA)
09:16PM 39.7675 -75.2931 141° Southeast 291 335 5,400 3,300 Climbing FAA TRACON SMA TRACON (SMA)
09:16PM 39.7625 -75.2622 102° East 299 344 6,300 3,300 Climbing FAA TRACON SMA TRACON (SMA)
09:17PM 39.7929 -74.7476 105° East  Level FlightAware Approximate
09:17PM 39.7653 -75.2208 85° East 308 354 7,600  Level FAA TRACON SMA TRACON (SMA)
09:17PM 39.7675 -75.1867 85° East 310 357 8,600 2,700 Climbing FAA TRACON SMA TRACON (SMA)
09:17PM 39.7694 -75.1519 86° East 329 379 9,400 3,300 Climbing FAA TRACON SMA TRACON (SMA)
09:18PM 39.8304 -74.6530 37° Northeast  Level FlightAware Approximate
09:18PM 39.7717 -75.1061 86° East 332 382 10,800  Level FAA TRACON SMA TRACON (SMA)
09:18PM 39.7742 -75.0686 85° East 347 399 11,200 1,320 Climbing FAA TRACON SMA TRACON (SMA)
09:18PM 39.7758 -75.0300 87° East 367 422 11,700 1,200 Climbing FAA TRACON SMA TRACON (SMA)
09:19PM 39.9074 -74.5759 38° Northeast  Level FlightAware Approximate
09:19PM 39.7794 -74.9753 85° East 384 442 12,000  Level FAA TRACON SMA TRACON (SMA)
09:19PM 39.7819 -74.9314 86° East 392 451 12,000  Level FAA TRACON SMA TRACON (SMA)
09:19PM 39.7842 -74.8872 86° East 395 455 12,000 420 Level FAA TRACON SMA TRACON (SMA)
09:20PM 39.7875 -74.8322 85° East 398 458 12,300 2,100 Climbing FAA TRACON SMA TRACON (SMA)
09:20PM 39.7892 -74.7900 87° East 399 459 13,400 2,880 Climbing FAA TRACON SMA TRACON (SMA)
09:20PM 39.7978 -74.7356 78° East 388 447 14,400 2,460 Climbing FAA TRACON SMA TRACON (SMA)
09:21PM 39.8375 -74.6733 50° Northeast 382 440 15,900 2,520 Climbing FAA TRACON SMA TRACON (SMA)
09:21PM 39.8661 -74.6450 37° Northeast 384 442 16,800 2,520 Climbing FAA TRACON SMA TRACON (SMA)
09:22PM 39.8986 -74.6139 36° Northeast 391 450 17,600 1,800 Climbing FAA TRACON SMA TRACON (SMA)
09:22PM 39.9225 -74.5889 39° Northeast 393 452 18,000 360 Climbing FAA TRACON SMA TRACON (SMA)
09:23PM 39.9225 -74.5889 90° East 393 452 18,000 1,980 Level FAA TRACON SMA TRACON (SMA)
09:25PM 40.1936 -74.3197 37° Northeast 430 495 23,600 2,520 Climbing New York Center
09:26PM 40.2919 -74.2350 33° Northeast 435 501 25,900 1,620 Climbing New York Center
09:27PM 40.4025 -74.1586 28° Northeast 435 501 27,000 540 Climbing New York Center
09:28PM 40.5131 -74.0794 29° Northeast 435 501 27,000  Level New York Center
09:30PM 40.7506 -73.9139 28° Northeast 455 524 27,000  Level Boston Center
09:31PM 40.8742 -73.8675 16° North 453 521 27,000  Level Boston Center
09:32PM 40.9972 -73.8647 North 442 509 27,000  Level Boston Center
09:33PM 41.1181 -73.8617 North 442 509 27,000  Level Boston Center
09:34PM 41.2347 -73.8561 North 429 494 27,000  Level Boston Center
09:35PM 41.3517 -73.8503 North 423 487 27,000  Level Boston Center
09:36PM 41.4725 -73.8475 North 423 487 27,000  Level Boston Center
09:37PM 41.5894 -73.8417 North 423 487 27,000  Level Boston Center
09:38PM 41.7061 -73.8389 North 423 487 27,000  Level Boston Center
09:39PM 41.8067 -73.8047 14° North 418 481 27,000  Level Boston Center
09:40PM 41.8997 -73.6842 44° Northeast 418 481 27,000  Level Boston Center
09:41PM 41.9886 -73.5489 48° Northeast 449 517 27,000  Level Boston Center
09:42PM 42.0794 -73.4078 49° Northeast 473 544 27,000 -360 Level Boston Center
09:43PM 42.1661 -73.2747 49° Northeast 485 558 26,300 -1,440 Descending Boston Center
09:44PM 42.2544 -73.1386 49° Northeast 478 550 24,100 -2,220 Descending Boston Center
09:45PM 42.3406 -73.0047 49° Northeast 473 544 22,000 -1,920 Descending Boston Center
09:46PM 42.4183 -72.8817 49° Northeast 461 531 20,400 -1,500 Descending Boston Center
09:47PM 42.5019 -72.7528 49° Northeast 424 488 19,000 -1,020 Descending Boston Center
09:48PM 42.5753 -72.6347 50° Northeast 409 471 18,400 -1,020 Descending Boston Center
09:49PM 42.6506 -72.5192 48° Northeast 409 471 17,000 -1,620 Descending Boston Center
09:50PM 42.6983 -72.3836 64° Northeast 396 456 15,200 -2,040 Descending Boston Center
09:51PM 42.7336 -72.2422 71° East 396 456 13,000 -2,040 Descending Boston Center
09:52PM 42.7647 -72.1261 70° East 376 433 11,200 -1,740 Descending Boston Center
09:53PM 42.7892 -71.9958 76° East 333 383 9,600 -1,560 Descending Boston Center
09:54PM 42.7783 -71.8914 98° East 302 348 8,200 -1,440 Descending Boston Center
09:55PM 42.7694 -71.7783 96° East 285 328 6,700 -1,620 Descending Boston Center
09:56PM 42.7606 -71.6878 98° East 269 310 5,000 -1,080 Descending Boston Center
09:57PM 42.7514 -71.5778 96° East 269 310 4,600 -1,200 Descending Boston Center
09:58PM 42.7631 -71.4814 81° East 269 310 2,700 -1,080 Descending Boston Center
09:59PM 42.7833 -71.3992 71° East 242 278 2,400 -300 Descending Boston Center
10:00PM 42.8164 -71.3731 30° Northeast 149 171 2,200 -240 Descending Boston Center